Norton, TX (76865)

10:41 AM CDT on September 03, 2015 (GMT -0500)
Winters ISD | | Change Station
CLOSE
Current Station
Personal Weather Station
Location: Winters, TX
Elevation: 1870 ft
Nearby Weather Stations

Elev 1870 ft 31.97 °N, 99.96 °W | Updated 13 minutes ago

Clear
Clear
83.8 °F
Feels Like 87 °F
N
6.8
Wind Variable Wind from SSW

Today
High -- | Low -- °F
--% Chance of Precip.
Yesterday
High -- | Low -- °F
Precip. -- in
7:17 AM 8:02 PM
Waning Gibbous, 69% visible
Pressure 30.00 in
Visibility 10.0 miles
Clouds Clear
Heat Index 87 °F
Dew Point 67 °F
Humidity 58%
Rainfall 0.00 in
Snow Depth Not available.
UV 4 out of 12
Pollen 9.20 out of 12
Air Quality Not available.
Flu Activity Not available.
METAR KDYS 031458Z AUTO 17010KT 10SM CLR 28/20 A3000 RMK AO2 SLPNO T02810197 52011 $
Pressure 30.00 in
Visibility 10.0 miles
Clouds Clear
Heat Index 87 °F
Dew Point 67 °F
Humidity 58%
Rainfall 0.00 in
Snow Depth Not available.
UV 4 out of 12
Pollen 9.20 out of 12
Air Quality Not available.
Flu Activity Not available.
METAR KDYS 031458Z AUTO 17010KT 10SM CLR 28/20 A3000 RMK AO2 SLPNO T02810197 52011 $

10-Day Weather Forecast

×

Almanac

Astronomy

Sep. 03, 2015 Rise Set
Actual Time
Civil Twilight
Nautical Twilight
Astronomical Twilight
Moon
Length of Visible Light
Length of Day
Tomorrow will be .
, % of the Moon is Illuminated

Today's Extremes

State Highs State Lows

Community

WunderPhotos

Upload Photos

1,851,974 photos uploaded!

WunderBlogs® & News

Nearby

Air Quality

  Air Quality AQ Index Pollutant
Not available.

Snow Depth

Station Depth Elevation

Earthquake Activity

City Distance Mag. Time & Date
Minimum magnitude displayed is 2.5.

Coastal Water Temperatures

Place Temperature

Stations

Nearby Weather Stations

Station Location Temp. Windchill Dew Point Humidity Wind Precip. Elev Updated Type